sensor_id;sensor_type;location;lat;lon;timestamp;pressure;altitude;pressure_sealevel;temperature;humidity
34241;BME280;20503;50.200;19.508;2024-03-02T00:00:17;100559.13;;;12.31;54.45
34241;BME280;20503;50.200;19.508;2024-03-02T00:01:28;100570.98;;;12.11;54.97
34241;BME280;20503;50.200;19.508;2024-03-02T00:02:30;100570.98;;;12.11;55.41
34241;BME280;20503;50.200;19.508;2024-03-02T00:03:31;100570.38;;;12.17;55.69
34241;BME280;20503;50.200;19.508;2024-03-02T00:04:32;100572.12;;;12.18;55.37
34241;BME280;20503;50.200;19.508;2024-03-02T00:05:33;100567.26;;;12.12;55.65
34241;BME280;20503;50.200;19.508;2024-03-02T00:06:34;100570.83;;;12.22;55.32
34241;BME280;20503;50.200;19.508;2024-03-02T00:07:36;100577.24;;;12.12;55.33
34241;BME280;20503;50.200;19.508;2024-03-02T00:08:37;100576.11;;;11.95;55.54
34241;BME280;20503;50.200;19.508;2024-03-02T00:09:39;100566.82;;;12.17;55.49
34241;BME280;20503;50.200;19.508;2024-03-02T00:10:40;100572.20;;;12.46;54.19
34241;BME280;20503;50.200;19.508;2024-03-02T00:11:42;100569.83;;;12.23;55.06
34241;BME280;20503;50.200;19.508;2024-03-02T00:12:47;100570.97;;;12.01;56.02
34241;BME280;20503;50.200;19.508;2024-03-02T00:13:52;100577.09;;;11.94;55.88
34241;BME280;20503;50.200;19.508;2024-03-02T00:14:55;100574.54;;;12.12;55.06
34241;BME280;20503;50.200;19.508;2024-03-02T00:15:59;100567.25;;;12.31;55.24
34241;BME280;20503;50.200;19.508;2024-03-02T00:17:00;100562.52;;;12.33;54.85
34241;BME280;20503;50.200;19.508;2024-03-02T00:18:02;100565.20;;;12.53;54.54
34241;BME280;20503;50.200;19.508;2024-03-02T00:19:07;100566.60;;;12.67;53.40
34241;BME280;20503;50.200;19.508;2024-03-02T00:20:10;100563.00;;;12.76;53.40
34241;BME280;20503;50.200;19.508;2024-03-02T00:21:12;100568.48;;;12.56;53.80
34241;BME280;20503;50.200;19.508;2024-03-02T00:22:18;100577.68;;;12.07;55.24
34241;BME280;20503;50.200;19.508;2024-03-02T00:23:20;100569.85;;;11.94;56.16
34241;BME280;20503;50.200;19.508;2024-03-02T00:24:32;100564.66;;;12.40;54.27
34241;BME280;20503;50.200;19.508;2024-03-02T00:25:45;100568.54;;;12.27;54.71
34241;BME280;20503;50.200;19.508;2024-03-02T00:26:48;100571.91;;;12.49;54.13
34241;BME280;20503;50.200;19.508;2024-03-02T00:27:49;100575.23;;;12.14;54.71
34241;BME280;20503;50.200;19.508;2024-03-02T00:28:54;100573.23;;;12.35;54.97
34241;BME280;20503;50.200;19.508;2024-03-02T00:29:57;100570.30;;;12.66;54.16
34241;BME280;20503;50.200;19.508;2024-03-02T00:31:05;100577.52;;;12.28;55.28
34241;BME280;20503;50.200;19.508;2024-03-02T00:32:17;100575.80;;;12.17;55.17
34241;BME280;20503;50.200;19.508;2024-03-02T00:33:20;100562.96;;;12.39;53.98
34241;BME280;20503;50.200;19.508;2024-03-02T00:34:22;100575.09;;;12.81;53.63
34241;BME280;20503;50.200;19.508;2024-03-02T00:35:24;100575.32;;;12.98;52.21
34241;BME280;20503;50.200;19.508;2024-03-02T00:36:26;100576.99;;;12.71;53.08
34241;BME280;20503;50.200;19.508;2024-03-02T00:37:46;100586.22;;;12.12;54.87
34241;BME280;20503;50.200;19.508;2024-03-02T00:38:50;100572.51;;;12.43;54.33
34241;BME280;20503;50.200;19.508;2024-03-02T00:39:52;100579.49;;;12.26;54.36
34241;BME280;20503;50.200;19.508;2024-03-02T00:40:54;100569.52;;;12.36;53.95
34241;BME280;20503;50.200;19.508;2024-03-02T00:42:15;100583.93;;;12.17;55.13
34241;BME280;20503;50.200;19.508;2024-03-02T00:44:33;100575.09;;;12.34;54.20
34241;BME280;20503;50.200;19.508;2024-03-02T00:45:39;100573.78;;;12.48;53.55
34241;BME280;20503;50.200;19.508;2024-03-02T00:46:43;100574.09;;;12.35;54.86
34241;BME280;20503;50.200;19.508;2024-03-02T00:47:45;100568.34;;;12.48;53.48
34241;BME280;20503;50.200;19.508;2024-03-02T00:48:56;100580.77;;;12.41;53.94
34241;BME280;20503;50.200;19.508;2024-03-02T00:49:57;100569.55;;;12.07;55.07
34241;BME280;20503;50.200;19.508;2024-03-02T00:50:59;100569.83;;;12.23;54.43
34241;BME280;20503;50.200;19.508;2024-03-02T00:52:00;100540.98;;;12.42;54.65
34241;BME280;20503;50.200;19.508;2024-03-02T00:53:02;100558.39;;;12.29;54.23
34241;BME280;20503;50.200;19.508;2024-03-02T00:54:05;100566.84;;;12.26;54.55
34241;BME280;20503;50.200;19.508;2024-03-02T00:55:09;100557.38;;;12.40;54.69
34241;BME280;20503;50.200;19.508;2024-03-02T00:56:11;100559.27;;;12.20;55.31
34241;BME280;20503;50.200;19.508;2024-03-02T00:57:14;100566.67;;;12.28;54.34
34241;BME280;20503;50.200;19.508;2024-03-02T00:58:16;100560.51;;;12.45;54.64
34241;BME280;20503;50.200;19.508;2024-03-02T00:59:18;100561.41;;;12.26;54.47
34241;BME280;20503;50.200;19.508;2024-03-02T01:00:19;100568.27;;;12.11;55.02
34241;BME280;20503;50.200;19.508;2024-03-02T01:01:39;100577.36;;;12.29;54.79
34241;BME280;20503;50.200;19.508;2024-03-02T01:02:40;100562.96;;;12.29;54.80
34241;BME280;20503;50.200;19.508;2024-03-02T01:03:58;100567.12;;;12.23;54.89
34241;BME280;20503;50.200;19.508;2024-03-02T01:05:00;100573.40;;;12.04;55.39
34241;BME280;20503;50.200;19.508;2024-03-02T01:06:01;100566.69;;;12.08;55.20
34241;BME280;20503;50.200;19.508;2024-03-02T01:07:24;100579.21;;;12.29;54.69
34241;BME280;20503;50.200;19.508;2024-03-02T01:08:35;100569.21;;;12.49;53.99
34241;BME280;20503;50.200;19.508;2024-03-02T01:09:38;100559.09;;;12.51;54.15
34241;BME280;20503;50.200;19.508;2024-03-02T01:10:39;100556.13;;;12.34;54.67
34241;BME280;20503;50.200;19.508;2024-03-02T01:11:40;100560.18;;;12.58;54.02
34241;BME280;20503;50.200;19.508;2024-03-02T01:12:42;100551.20;;;12.57;53.91
34241;BME280;20503;50.200;19.508;2024-03-02T01:13:45;100550.52;;;12.46;54.80
34241;BME280;20503;50.200;19.508;2024-03-02T01:14:47;100554.07;;;12.56;53.63
34241;BME280;20503;50.200;19.508;2024-03-02T01:15:48;100551.77;;;12.61;53.64
34241;BME280;20503;50.200;19.508;2024-03-02T01:16:50;100547.53;;;12.49;54.35
34241;BME280;20503;50.200;19.508;2024-03-02T01:18:09;100555.69;;;12.39;54.28
34241;BME280;20503;50.200;19.508;2024-03-02T01:19:10;100541.41;;;12.47;53.85
34241;BME280;20503;50.200;19.508;2024-03-02T01:20:18;100541.98;;;12.50;54.06
34241;BME280;20503;50.200;19.508;2024-03-02T01:21:19;100535.21;;;12.64;54.04
34241;BME280;20503;50.200;19.508;2024-03-02T01:22:21;100538.98;;;12.44;54.71
34241;BME280;20503;50.200;19.508;2024-03-02T01:23:26;100542.67;;;12.52;53.67
34241;BME280;20503;50.200;19.508;2024-03-02T01:24:27;100538.50;;;12.58;54.01
34241;BME280;20503;50.200;19.508;2024-03-02T01:25:29;100533.34;;;12.74;53.72
34241;BME280;20503;50.200;19.508;2024-03-02T01:26:30;100533.23;;;12.94;53.04
34241;BME280;20503;50.200;19.508;2024-03-02T01:27:32;100537.68;;;12.95;52.89
34241;BME280;20503;50.200;19.508;2024-03-02T01:28:33;100534.55;;;13.17;52.40
34241;BME280;20503;50.200;19.508;2024-03-02T01:29:34;100535.95;;;12.94;52.05
34241;BME280;20503;50.200;19.508;2024-03-02T01:30:35;100535.95;;;13.21;51.85
34241;BME280;20503;50.200;19.508;2024-03-02T01:31:37;100534.25;;;12.93;53.09
34241;BME280;20503;50.200;19.508;2024-03-02T01:32:40;100530.06;;;12.98;52.94
34241;BME280;20503;50.200;19.508;2024-03-02T01:33:53;100535.16;;;12.74;53.16
34241;BME280;20503;50.200;19.508;2024-03-02T01:34:54;100548.71;;;12.83;53.08
34241;BME280;20503;50.200;19.508;2024-03-02T01:35:56;100535.78;;;12.68;53.12
34241;BME280;20503;50.200;19.508;2024-03-02T01:36:58;100529.44;;;12.87;52.44
34241;BME280;20503;50.200;19.508;2024-03-02T01:37:59;100529.01;;;12.81;52.82
34241;BME280;20503;50.200;19.508;2024-03-02T01:39:02;100537.63;;;13.04;53.12
34241;BME280;20503;50.200;19.508;2024-03-02T01:40:34;100550.59;;;12.73;53.18
34241;BME280;20503;50.200;19.508;2024-03-02T01:41:42;100547.47;;;12.68;53.55
34241;BME280;20503;50.200;19.508;2024-03-02T01:42:43;100537.20;;;12.72;53.08
34241;BME280;20503;50.200;19.508;2024-03-02T01:43:45;100538.61;;;12.66;53.28
34241;BME280;20503;50.200;19.508;2024-03-02T01:44:46;100539.10;;;12.89;53.13
34241;BME280;20503;50.200;19.508;2024-03-02T01:45:48;100542.95;;;12.59;53.42
34241;BME280;20503;50.200;19.508;2024-03-02T01:46:49;100527.86;;;12.37;54.39
34241;BME280;20503;50.200;19.508;2024-03-02T01:47:52;100527.42;;;12.51;53.76
34241;BME280;20503;50.200;19.508;2024-03-02T01:48:54;100530.84;;;12.91;52.72
34241;BME280;20503;50.200;19.508;2024-03-02T01:49:55;100529.67;;;13.21;51.97
34241;BME280;20503;50.200;19.508;2024-03-02T01:50:56;100524.25;;;13.21;52.10
34241;BME280;20503;50.200;19.508;2024-03-02T01:51:58;100521.27;;;13.14;51.46
34241;BME280;20503;50.200;19.508;2024-03-02T01:53:01;100524.91;;;13.05;52.49
34241;BME280;20503;50.200;19.508;2024-03-02T01:54:06;100522.82;;;12.99;52.06
34241;BME280;20503;50.200;19.508;2024-03-02T01:55:07;100523.29;;;12.84;52.47
34241;BME280;20503;50.200;19.508;2024-03-02T01:56:09;100524.87;;;12.87;52.66
34241;BME280;20503;50.200;19.508;2024-03-02T01:57:13;100518.55;;;12.59;52.87
34241;BME280;20503;50.200;19.508;2024-03-02T01:58:14;100512.07;;;12.70;52.97
34241;BME280;20503;50.200;19.508;2024-03-02T01:59:16;100514.49;;;12.73;52.62
34241;BME280;20503;50.200;19.508;2024-03-02T02:00:18;100508.89;;;12.84;52.85
34241;BME280;20503;50.200;19.508;2024-03-02T02:01:21;100513.26;;;12.57;52.95
34241;BME280;20503;50.200;19.508;2024-03-02T02:02:23;100522.58;;;12.45;53.61
34241;BME280;20503;50.200;19.508;2024-03-02T02:03:24;100514.77;;;12.32;53.31
34241;BME280;20503;50.200;19.508;2024-03-02T02:04:26;100510.64;;;12.75;53.26
34241;BME280;20503;50.200;19.508;2024-03-02T02:05:37;100522.34;;;12.76;52.84
34241;BME280;20503;50.200;19.508;2024-03-02T02:06:39;100524.38;;;12.64;52.68
34241;BME280;20503;50.200;19.508;2024-03-02T02:07:44;100508.78;;;12.76;52.62
34241;BME280;20503;50.200;19.508;2024-03-02T02:08:45;100499.52;;;12.78;52.52
34241;BME280;20503;50.200;19.508;2024-03-02T02:09:48;100508.00;;;12.56;52.91
34241;BME280;20503;50.200;19.508;2024-03-02T02:10:50;100500.83;;;12.65;52.85
34241;BME280;20503;50.200;19.508;2024-03-02T02:11:52;100512.82;;;12.62;53.14
34241;BME280;20503;50.200;19.508;2024-03-02T02:12:53;100506.70;;;12.60;53.97
34241;BME280;20503;50.200;19.508;2024-03-02T02:13:56;100514.31;;;12.47;52.57
34241;BME280;20503;50.200;19.508;2024-03-02T02:14:57;100510.43;;;12.49;53.67
34241;BME280;20503;50.200;19.508;2024-03-02T02:16:08;100516.30;;;12.45;53.93
34241;BME280;20503;50.200;19.508;2024-03-02T02:17:09;100508.78;;;12.29;54.20
34241;BME280;20503;50.200;19.508;2024-03-02T02:18:11;100512.82;;;12.62;53.13
34241;BME280;20503;50.200;19.508;2024-03-02T02:19:12;100507.03;;;12.47;53.98
34241;BME280;20503;50.200;19.508;2024-03-02T02:20:14;100506.09;;;12.66;52.64
34241;BME280;20503;50.200;19.508;2024-03-02T02:21:15;100509.57;;;12.58;53.19
34241;BME280;20503;50.200;19.508;2024-03-02T02:22:16;100504.09;;;12.68;52.23
34241;BME280;20503;50.200;19.508;2024-03-02T02:23:18;100492.35;;;12.77;53.21
34241;BME280;20503;50.200;19.508;2024-03-02T02:24:19;100506.52;;;12.71;52.40
34241;BME280;20503;50.200;19.508;2024-03-02T02:25:20;100506.18;;;12.47;53.69
34241;BME280;20503;50.200;19.508;2024-03-02T02:26:22;100493.82;;;12.72;53.33
34241;BME280;20503;50.200;19.508;2024-03-02T02:27:23;100497.56;;;12.61;52.90
34241;BME280;20503;50.200;19.508;2024-03-02T02:28:26;100496.58;;;12.90;52.97
34241;BME280;20503;50.200;19.508;2024-03-02T02:29:28;100498.41;;;12.62;52.90
34241;BME280;20503;50.200;19.508;2024-03-02T02:30:31;100497.48;;;12.80;53.10
34241;BME280;20503;50.200;19.508;2024-03-02T02:31:39;100489.99;;;12.65;51.75
34241;BME280;20503;50.200;19.508;2024-03-02T02:32:41;100492.78;;;12.82;52.31
34241;BME280;20503;50.200;19.508;2024-03-02T02:33:43;100480.76;;;13.13;51.59
34241;BME280;20503;50.200;19.508;2024-03-02T02:34:44;100484.86;;;13.17;51.74
34241;BME280;20503;50.200;19.508;2024-03-02T02:35:45;100495.69;;;12.99;51.59
34241;BME280;20503;50.200;19.508;2024-03-02T02:36:47;100498.04;;;12.84;52.17
34241;BME280;20503;50.200;19.508;2024-03-02T02:37:50;100491.29;;;12.60;52.67
34241;BME280;20503;50.200;19.508;2024-03-02T02:38:52;100489.16;;;12.92;52.18
34241;BME280;20503;50.200;19.508;2024-03-02T02:39:54;100504.58;;;12.91;52.61
34241;BME280;20503;50.200;19.508;2024-03-02T02:40:55;100491.14;;;13.17;51.56
34241;BME280;20503;50.200;19.508;2024-03-02T02:41:56;100492.66;;;13.29;50.90
34241;BME280;20503;50.200;19.508;2024-03-02T02:42:59;100495.07;;;13.05;51.90
34241;BME280;20503;50.200;19.508;2024-03-02T02:44:00;100495.16;;;13.41;50.80
34241;BME280;20503;50.200;19.508;2024-03-02T02:45:21;100497.73;;;13.60;50.29
34241;BME280;20503;50.200;19.508;2024-03-02T02:46:22;100488.58;;;13.61;50.37
34241;BME280;20503;50.200;19.508;2024-03-02T02:47:50;100498.95;;;13.30;51.05
34241;BME280;20503;50.200;19.508;2024-03-02T02:48:52;100495.72;;;13.44;50.51
34241;BME280;20503;50.200;19.508;2024-03-02T02:49:55;100495.63;;;13.36;50.64
34241;BME280;20503;50.200;19.508;2024-03-02T02:50:58;100492.06;;;13.53;50.85
34241;BME280;20503;50.200;19.508;2024-03-02T02:51:59;100499.96;;;13.29;50.87
34241;BME280;20503;50.200;19.508;2024-03-02T02:53:00;100502.92;;;13.36;51.24
34241;BME280;20503;50.200;19.508;2024-03-02T02:54:02;100494.38;;;13.66;49.81
34241;BME280;20503;50.200;19.508;2024-03-02T02:55:04;100496.95;;;13.22;51.15
34241;BME280;20503;50.200;19.508;2024-03-02T02:56:22;100503.13;;;13.24;51.11
34241;BME280;20503;50.200;19.508;2024-03-02T02:57:24;100495.70;;;13.62;50.21
34241;BME280;20503;50.200;19.508;2024-03-02T02:58:25;100489.34;;;13.89;49.87
34241;BME280;20503;50.200;19.508;2024-03-02T02:59:40;100495.23;;;13.67;49.90
34241;BME280;20503;50.200;19.508;2024-03-02T03:00:42;100491.45;;;13.77;49.20
34241;BME280;20503;50.200;19.508;2024-03-02T03:01:43;100496.27;;;13.83;49.42
34241;BME280;20503;50.200;19.508;2024-03-02T03:03:09;100496.47;;;13.90;49.23
34241;BME280;20503;50.200;19.508;2024-03-02T03:04:10;100486.86;;;13.96;48.75
34241;BME280;20503;50.200;19.508;2024-03-02T03:05:13;100498.42;;;13.62;49.56
34241;BME280;20503;50.200;19.508;2024-03-02T03:06:26;100505.17;;;13.40;50.29
34241;BME280;20503;50.200;19.508;2024-03-02T03:07:28;100492.11;;;13.26;50.64
34241;BME280;20503;50.200;19.508;2024-03-02T03:08:29;100488.94;;;13.30;50.51
34241;BME280;20503;50.200;19.508;2024-03-02T03:09:30;100487.27;;;13.65;49.64
34241;BME280;20503;50.200;19.508;2024-03-02T03:10:54;100498.42;;;13.62;50.12
34241;BME280;20503;50.200;19.508;2024-03-02T03:11:56;100485.54;;;13.28;49.67
34241;BME280;20503;50.200;19.508;2024-03-02T03:13:04;100491.46;;;13.60;49.98
34241;BME280;20503;50.200;19.508;2024-03-02T03:14:12;100500.50;;;13.32;50.54
34241;BME280;20503;50.200;19.508;2024-03-02T03:15:13;100490.50;;;13.33;51.67
34241;BME280;20503;50.200;19.508;2024-03-02T03:16:16;100486.86;;;13.42;50.66
34241;BME280;20503;50.200;19.508;2024-03-02T03:17:30;100495.33;;;13.57;50.09
34241;BME280;20503;50.200;19.508;2024-03-02T03:18:31;100488.74;;;13.60;49.84
34241;BME280;20503;50.200;19.508;2024-03-02T03:19:32;100488.73;;;13.42;50.47
34241;BME280;20503;50.200;19.508;2024-03-02T03:20:34;100491.85;;;13.47;49.96
34241;BME280;20503;50.200;19.508;2024-03-02T03:21:36;100492.91;;;13.54;50.37
34241;BME280;20503;50.200;19.508;2024-03-02T03:22:38;100487.54;;;13.98;49.45
34241;BME280;20503;50.200;19.508;2024-03-02T03:23:40;100488.74;;;13.60;50.23
34241;BME280;20503;50.200;19.508;2024-03-02T03:24:41;100486.79;;;13.70;49.69
34241;BME280;20503;50.200;19.508;2024-03-02T03:25:43;100491.17;;;14.06;49.20
34241;BME280;20503;50.200;19.508;2024-03-02T03:26:44;100495.23;;;13.67;49.46
34241;BME280;20503;50.200;19.508;2024-03-02T03:27:46;100495.55;;;13.28;50.60
34241;BME280;20503;50.200;19.508;2024-03-02T03:28:48;100491.69;;;13.84;49.52
34241;BME280;20503;50.200;19.508;2024-03-02T03:29:51;100497.97;;;13.85;49.45
34241;BME280;20503;50.200;19.508;2024-03-02T03:30:53;100484.17;;;13.60;49.82
34241;BME280;20503;50.200;19.508;2024-03-02T03:31:54;100489.33;;;14.07;48.73
34241;BME280;20503;50.200;19.508;2024-03-02T03:32:56;100487.73;;;13.43;50.63
34241;BME280;20503;50.200;19.508;2024-03-02T03:33:58;100486.01;;;13.42;50.94
34241;BME280;20503;50.200;19.508;2024-03-02T03:35:01;100490.48;;;14.04;49.09
34241;BME280;20503;50.200;19.508;2024-03-02T03:36:02;100483.36;;;14.03;49.24
34241;BME280;20503;50.200;19.508;2024-03-02T03:37:04;100479.20;;;14.17;48.55
34241;BME280;20503;50.200;19.508;2024-03-02T03:38:06;100480.65;;;14.03;48.21
34241;BME280;20503;50.200;19.508;2024-03-02T03:39:07;100482.68;;;14.27;48.03
34241;BME280;20503;50.200;19.508;2024-03-02T03:40:10;100491.56;;;14.55;47.41
34241;BME280;20503;50.200;19.508;2024-03-02T03:41:11;100479.80;;;14.55;47.22
34241;BME280;20503;50.200;19.508;2024-03-02T03:42:12;100481.93;;;14.69;46.60
34241;BME280;20503;50.200;19.508;2024-03-02T03:43:13;100483.90;;;14.59;47.27
34241;BME280;20503;50.200;19.508;2024-03-02T03:44:16;100488.45;;;14.06;47.79
34241;BME280;20503;50.200;19.508;2024-03-02T03:45:18;100485.90;;;14.31;48.98
34241;BME280;20503;50.200;19.508;2024-03-02T03:46:19;100488.37;;;14.16;48.12
34241;BME280;20503;50.200;19.508;2024-03-02T03:47:21;100476.94;;;14.56;47.56
34241;BME280;20503;50.200;19.508;2024-03-02T03:48:23;100487.37;;;14.43;47.52
34241;BME280;20503;50.200;19.508;2024-03-02T03:49:24;100484.11;;;14.66;46.41
34241;BME280;20503;50.200;19.508;2024-03-02T03:50:27;100488.29;;;14.86;46.19
34241;BME280;20503;50.200;19.508;2024-03-02T03:51:28;100488.52;;;14.67;47.07
34241;BME280;20503;50.200;19.508;2024-03-02T03:52:29;100476.94;;;14.56;46.94
34241;BME280;20503;50.200;19.508;2024-03-02T03:53:30;100488.48;;;14.32;48.11
34241;BME280;20503;50.200;19.508;2024-03-02T03:54:32;100479.72;;;14.47;47.48
34241;BME280;20503;50.200;19.508;2024-03-02T03:55:33;100479.21;;;14.43;47.18
34241;BME280;20503;50.200;19.508;2024-03-02T03:56:35;100479.80;;;14.29;47.81
34241;BME280;20503;50.200;19.508;2024-03-02T03:57:36;100483.36;;;14.29;47.55
34241;BME280;20503;50.200;19.508;2024-03-02T03:58:37;100482.01;;;14.51;47.67
34241;BME280;20503;50.200;19.508;2024-03-02T03:59:38;100480.85;;;14.62;46.95
34241;BME280;20503;50.200;19.508;2024-03-02T04:00:59;100480.68;;;14.55;47.08
34241;BME280;20503;50.200;19.508;2024-03-02T04:02:01;100483.08;;;14.67;46.65
34241;BME280;20503;50.200;19.508;2024-03-02T04:03:04;100479.09;;;14.87;46.48
34241;BME280;20503;50.200;19.508;2024-03-02T04:04:05;100483.69;;;14.87;46.45
34241;BME280;20503;50.200;19.508;2024-03-02T04:05:08;100475.35;;;14.80;46.17
34241;BME280;20503;50.200;19.508;2024-03-02T04:06:12;100479.94;;;15.30;45.43
34241;BME280;20503;50.200;19.508;2024-03-02T04:07:15;100479.84;;;15.64;44.76
34241;BME280;20503;50.200;19.508;2024-03-02T04:08:16;100472.37;;;15.74;44.26
34241;BME280;20503;50.200;19.508;2024-03-02T04:09:17;100480.73;;;15.73;44.03
34241;BME280;20503;50.200;19.508;2024-03-02T04:10:19;100473.73;;;15.78;43.82
34241;BME280;20503;50.200;19.508;2024-03-02T04:11:22;100472.22;;;15.76;44.22
34241;BME280;20503;50.200;19.508;2024-03-02T04:12:23;100475.43;;;15.79;44.16
34241;BME280;20503;50.200;19.508;2024-03-02T04:13:24;100471.02;;;15.87;44.25
34241;BME280;20503;50.200;19.508;2024-03-02T04:14:25;100477.66;;;15.84;43.85
34241;BME280;20503;50.200;19.508;2024-03-02T04:15:27;100482.60;;;15.81;43.89
34241;BME280;20503;50.200;19.508;2024-03-02T04:16:29;100490.08;;;15.70;44.24
34241;BME280;20503;50.200;19.508;2024-03-02T04:17:31;100478.61;;;15.50;44.92
34241;BME280;20503;50.200;19.508;2024-03-02T04:18:45;100481.83;;;15.38;45.19
34241;BME280;20503;50.200;19.508;2024-03-02T04:19:46;100482.31;;;15.25;45.56
34241;BME280;20503;50.200;19.508;2024-03-02T04:20:47;100482.35;;;15.41;44.69
34241;BME280;20503;50.200;19.508;2024-03-02T04:21:49;100489.27;;;15.27;45.66
34241;BME280;20503;50.200;19.508;2024-03-02T04:22:50;100488.27;;;15.28;45.58
34241;BME280;20503;50.200;19.508;2024-03-02T04:24:12;100487.75;;;15.25;45.49
34241;BME280;20503;50.200;19.508;2024-03-02T04:25:14;100487.59;;;15.35;45.23
34241;BME280;20503;50.200;19.508;2024-03-02T04:26:32;100498.00;;;14.89;46.19
34241;BME280;20503;50.200;19.508;2024-03-02T04:27:33;100493.27;;;14.99;46.20
34241;BME280;20503;50.200;19.508;2024-03-02T04:28:34;100487.82;;;14.99;46.00
34241;BME280;20503;50.200;19.508;2024-03-02T04:29:36;100501.42;;;14.99;46.21
34241;BME280;20503;50.200;19.508;2024-03-02T04:30:37;100498.00;;;14.89;46.65
34241;BME280;20503;50.200;19.508;2024-03-02T04:31:39;100495.42;;;14.87;46.87
34241;BME280;20503;50.200;19.508;2024-03-02T04:32:40;100492.24;;;14.92;46.28
34241;BME280;20503;50.200;19.508;2024-03-02T04:33:46;100498.81;;;14.81;46.39
34241;BME280;20503;50.200;19.508;2024-03-02T04:34:48;100499.09;;;14.70;46.22
34241;BME280;20503;50.200;19.508;2024-03-02T04:35:49;100504.00;;;14.66;46.89
34241;BME280;20503;50.200;19.508;2024-03-02T04:36:50;100499.79;;;14.72;46.84
34241;BME280;20503;50.200;19.508;2024-03-02T04:37:51;100501.80;;;14.70;46.65
34241;BME280;20503;50.200;19.508;2024-03-02T04:38:53;100502.75;;;14.35;47.45
34241;BME280;20503;50.200;19.508;2024-03-02T04:39:54;100500.38;;;14.31;47.89
34241;BME280;20503;50.200;19.508;2024-03-02T04:40:56;100508.34;;;14.07;48.11
34241;BME280;20503;50.200;19.508;2024-03-02T04:41:58;100502.70;;;13.65;48.74
34241;BME280;20503;50.200;19.508;2024-03-02T04:43:01;100514.02;;;13.15;50.27
34241;BME280;20503;50.200;19.508;2024-03-02T04:44:03;100506.73;;;13.15;50.32
34241;BME280;20503;50.200;19.508;2024-03-02T04:45:07;100510.10;;;12.99;50.99
34241;BME280;20503;50.200;19.508;2024-03-02T04:46:08;100494.83;;;12.71;51.89
34241;BME280;20503;50.200;19.508;2024-03-02T04:47:09;100499.45;;;13.16;50.67
34241;BME280;20503;50.200;19.508;2024-03-02T04:48:11;100504.05;;;12.78;51.80
34241;BME280;20503;50.200;19.508;2024-03-02T04:49:12;100512.58;;;12.46;53.08
34241;BME280;20503;50.200;19.508;2024-03-02T04:50:13;100501.15;;;12.89;51.28
34241;BME280;20503;50.200;19.508;2024-03-02T04:51:15;100499.48;;;13.06;51.60
34241;BME280;20503;50.200;19.508;2024-03-02T04:52:31;100501.82;;;13.28;50.54
34241;BME280;20503;50.200;19.508;2024-03-02T04:53:32;100501.33;;;12.78;51.24
34241;BME280;20503;50.200;19.508;2024-03-02T04:54:34;100500.59;;;13.23;50.52
34241;BME280;20503;50.200;19.508;2024-03-02T04:55:46;100500.30;;;13.16;50.90
34241;BME280;20503;50.200;19.508;2024-03-02T04:57:02;100499.73;;;13.40;49.82
34241;BME280;20503;50.200;19.508;2024-03-02T04:58:03;100502.75;;;12.82;50.78
34241;BME280;20503;50.200;19.508;2024-03-02T04:59:05;100499.26;;;12.62;51.96
34241;BME280;20503;50.200;19.508;2024-03-02T05:00:09;100495.79;;;13.07;50.70
34241;BME280;20503;50.200;19.508;2024-03-02T05:01:11;100490.41;;;13.25;50.44
34241;BME280;20503;50.200;19.508;2024-03-02T05:02:38;100503.55;;;13.20;50.56
34241;BME280;20503;50.200;19.508;2024-03-02T05:04:06;100502.23;;;13.69;49.31
34241;BME280;20503;50.200;19.508;2024-03-02T05:05:07;100492.05;;;13.89;48.89
34241;BME280;20503;50.200;19.508;2024-03-02T05:06:09;100495.07;;;14.04;48.29
34241;BME280;20503;50.200;19.508;2024-03-02T05:07:11;100489.83;;;14.11;48.16
34241;BME280;20503;50.200;19.508;2024-03-02T05:08:13;100489.07;;;14.44;47.08
34241;BME280;20503;50.200;19.508;2024-03-02T05:09:15;100487.90;;;14.73;46.11
34241;BME280;20503;50.200;19.508;2024-03-02T05:10:17;100494.96;;;14.92;46.06
34241;BME280;20503;50.200;19.508;2024-03-02T05:11:18;100489.87;;;14.97;45.60
34241;BME280;20503;50.200;19.508;2024-03-02T05:12:32;100490.86;;;14.88;45.45
34241;BME280;20503;50.200;19.508;2024-03-02T05:13:48;100494.89;;;14.49;46.68
34241;BME280;20503;50.200;19.508;2024-03-02T05:14:49;100491.69;;;14.54;46.94
34241;BME280;20503;50.200;19.508;2024-03-02T05:15:51;100488.34;;;14.60;46.42
34241;BME280;20503;50.200;19.508;2024-03-02T05:16:52;100494.14;;;14.65;46.43
34241;BME280;20503;50.200;19.508;2024-03-02T05:17:54;100503.82;;;14.42;46.31
34241;BME280;20503;50.200;19.508;2024-03-02T05:18:58;100502.13;;;14.41;46.00
34241;BME280;20503;50.200;19.508;2024-03-02T05:19:59;100502.08;;;14.59;46.44
34241;BME280;20503;50.200;19.508;2024-03-02T05:21:01;100505.27;;;14.28;46.95
34241;BME280;20503;50.200;19.508;2024-03-02T05:22:03;100501.71;;;14.27;47.22
34241;BME280;20503;50.200;19.508;2024-03-02T05:23:04;100503.45;;;14.37;47.27
34241;BME280;20503;50.200;19.508;2024-03-02T05:24:06;100501.95;;;14.42;46.83
34241;BME280;20503;50.200;19.508;2024-03-02T05:25:07;100505.15;;;14.55;46.59
34241;BME280;20503;50.200;19.508;2024-03-02T05:26:11;100507.34;;;14.34;46.75
34241;BME280;20503;50.200;19.508;2024-03-02T05:27:16;100509.38;;;14.32;46.95
34241;BME280;20503;50.200;19.508;2024-03-02T05:28:17;100507.93;;;14.20;47.01
34241;BME280;20503;50.200;19.508;2024-03-02T05:29:19;100517.58;;;14.40;46.64
34241;BME280;20503;50.200;19.508;2024-03-02T05:30:21;100512.45;;;14.11;46.90